KLGC/LGC METAR and TAF weather

Enter ICAO airport designator
Station Type Date Time Source
KLGC METAR 2019/12/12 16:55 UTC NOAA

KLGC 121655Z AUTO 11008KT 070V140 10SM OVC047 09/M06 A3045 RMK AO2 T00921056


Station Type Date Time Source
KLGC Decoded METAR 2019/12/12 16:55 UTC NOAA

La Grange, Callaway Airport, GA, United States (KLGC) 33-00-32N 085-04-21W
Dec 12, 2019 - 11:55 AM EST / 2019.12.12 1655 UTC
Wind: from the ESE (110 degrees) at 9 MPH (8 KT) (direction variable):0
Visibility: 10 mile(s):0
Sky conditions: overcast
Temperature: 48.6 F (9.2 C)
Dew Point: 21.9 F (-5.6 C)
Relative Humidity: 34%
Pressure (altimeter): 30.45 in. Hg (1031 hPa)
ob: KLGC 121655Z AUTO 11008KT 070V140 10SM OVC047 09/M06 A3045 RMK AO2 T00921056
cycle: 17

Station Type Date Time Source
KLGC TAF UTC NOAA

Error!

Example: see airport list